Time;durP1;ratioP1;P1;durP2;ratioP2;P2;SDS_P1;SDS_P2;PMS_P1;PMS_P2;Temp;Humidity;BMP_temperature;BMP_pressure;BME280_temperature;BME280_humidity;BME280_pressure;Samples;Min_cycle;Max_cycle;Signal;HPM_P1;HPM_P2
2023/03/18 00:00:41;;;;;;;7.13;5.93;;;16.70;49.20;;;;;;5053455;28;20514;-44
2023/03/18 00:03:07;;;;;;;7.83;6.30;;;16.80;49.10;;;;;;5053457;28;20658;-43
2023/03/18 00:05:33;;;;;;;7.23;6.37;;;16.70;48.90;;;;;;5052356;28;20933;-44
2023/03/18 00:08:00;;;;;;;7.03;6.33;;;16.70;48.90;;;;;;5053094;28;20507;-43
2023/03/18 00:10:26;;;;;;;9.13;6.50;;;16.60;49.20;;;;;;5053701;28;20957;-43
2023/03/18 00:12:52;;;;;;;9.00;6.37;;;16.50;49.30;;;;;;5053610;28;20442;-44
2023/03/18 00:15:18;;;;;;;7.97;5.63;;;16.60;49.30;;;;;;5053399;28;20207;-43
2023/03/18 00:17:45;;;;;;;8.67;6.43;;;16.60;49.10;;;;;;5052863;28;20235;-43
2023/03/18 00:20:12;;;;;;;6.60;5.70;;;16.60;49.00;;;;;;5053128;28;20570;-46
2023/03/18 00:22:40;;;;;;;6.03;5.40;;;16.60;48.90;;;;;;5053122;28;20427;-43
2023/03/18 00:25:07;;;;;;;7.00;5.20;;;16.60;48.90;;;;;;5053309;28;20909;-43
2023/03/18 00:27:34;;;;;;;6.73;5.97;;;16.60;48.90;;;;;;5052976;28;20435;-43
2023/03/18 00:30:01;;;;;;;6.17;5.10;;;16.60;48.90;;;;;;5053224;28;20435;-43
2023/03/18 00:32:27;;;;;;;7.80;6.23;;;16.50;48.90;;;;;;5051372;28;20469;-43
2023/03/18 00:34:53;;;;;;;7.10;5.90;;;16.50;48.80;;;;;;5053196;28;20467;-45
2023/03/18 00:37:29;;;;;;;13.40;5.57;;;16.50;48.80;;;;;;5052711;28;20918;-44
2023/03/18 00:39:57;;;;;;;11.23;5.70;;;16.50;48.80;;;;;;5052819;28;20990;-43
2023/03/18 00:42:22;;;;;;;7.13;6.40;;;16.40;48.70;;;;;;5053050;28;20784;-44
2023/03/18 00:44:48;;;;;;;8.50;5.50;;;16.30;48.80;;;;;;5053054;28;20424;-43
2023/03/18 00:47:13;;;;;;;9.00;5.73;;;16.10;49.00;;;;;;5052591;28;20235;-43
2023/03/18 00:49:39;;;;;;;6.43;5.13;;;16.10;49.00;;;;;;5052697;28;20216;-45
2023/03/18 00:52:05;;;;;;;8.57;5.30;;;16.20;48.90;;;;;;5052860;28;20196;-43
2023/03/18 00:54:30;;;;;;;12.50;6.73;;;16.30;48.60;;;;;;5052460;28;20840;-44
2023/03/18 00:56:56;;;;;;;9.03;6.20;;;16.40;48.60;;;;;;5052506;28;20189;-43
2023/03/18 00:59:22;;;;;;;12.20;5.93;;;16.40;48.50;;;;;;5050634;28;20267;-45
2023/03/18 01:01:48;;;;;;;10.43;5.90;;;16.40;48.50;;;;;;5052462;28;20227;-43
2023/03/18 01:04:14;;;;;;;6.40;5.60;;;16.40;48.30;;;;;;5052349;28;20430;-43
2023/03/18 01:06:39;;;;;;;6.30;5.40;;;16.30;48.40;;;;;;5052053;28;20188;-44
2023/03/18 01:09:07;;;;;;;6.30;5.70;;;16.30;48.50;;;;;;5052211;28;20197;-43
2023/03/18 01:11:33;;;;;;;6.00;5.43;;;16.30;48.80;;;;;;5052528;28;20196;-43
2023/03/18 01:13:59;;;;;;;11.27;4.97;;;16.30;48.00;;;;;;5052417;28;20493;-43
2023/03/18 01:16:26;;;;;;;6.40;5.17;;;16.30;47.70;;;;;;5052056;28;20469;-44
2023/03/18 01:18:52;;;;;;;6.57;5.20;;;16.30;47.60;;;;;;5052261;28;20443;-44
2023/03/18 01:21:18;;;;;;;5.23;4.40;;;16.30;47.60;;;;;;5051979;28;20526;-44
2023/03/18 01:23:44;;;;;;;4.93;4.40;;;16.20;47.50;;;;;;5052076;28;20435;-43
2023/03/18 01:26:10;;;;;;;4.57;4.17;;;16.10;47.20;;;;;;5049983;28;20434;-43
2023/03/18 01:28:36;;;;;;;7.83;4.10;;;16.10;47.10;;;;;;5052235;28;20180;-44
2023/03/18 01:31:02;;;;;;;8.30;4.80;;;16.10;47.00;;;;;;5051837;28;20200;-46
2023/03/18 01:33:28;;;;;;;5.07;4.20;;;16.00;46.60;;;;;;5051890;28;20427;-44
2023/03/18 01:35:56;;;;;;;4.13;3.80;;;16.00;46.50;;;;;;5051389;28;20201;-46
2023/03/18 01:38:23;;;;;;;5.03;4.53;;;16.00;46.30;;;;;;5051822;28;20526;-43
2023/03/18 01:40:49;;;;;;;5.00;3.80;;;16.00;46.20;;;;;;5051807;28;20493;-48
2023/03/18 01:43:22;;;;;;;6.30;4.27;;;16.10;46.10;;;;;;5051776;28;20454;-48
2023/03/18 01:45:59;;;;;;;5.20;3.80;;;16.20;45.80;;;;;;5051435;28;20427;-48
2023/03/18 01:48:29;;;;;;;6.50;3.93;;;16.30;45.70;;;;;;5051636;28;20940;-48
2023/03/18 01:51:07;;;;;;;6.07;3.63;;;16.20;45.50;;;;;;5051613;28;20423;-48
2023/03/18 01:53:39;;;;;;;6.30;3.70;;;16.20;45.30;;;;;;5049897;28;20454;-48
2023/03/18 01:56:06;;;;;;;5.57;3.53;;;16.20;45.30;;;;;;5051211;28;20493;-47
2023/03/18 01:58:37;;;;;;;7.67;3.23;;;16.20;45.30;;;;;;5051453;28;20423;-47
2023/03/18 02:01:08;;;;;;;5.57;3.10;;;16.20;45.30;;;;;;5051327;28;20505;-47
2023/03/18 02:03:35;;;;;;;4.53;3.40;;;16.30;45.20;;;;;;5051411;28;20810;-46
2023/03/18 02:06:02;;;;;;;4.13;3.30;;;16.30;45.40;;;;;;5050712;28;20431;-48
2023/03/18 02:08:28;;;;;;;3.27;2.97;;;16.20;44.70;;;;;;5051216;28;20423;-45
2023/03/18 02:10:54;;;;;;;3.53;2.33;;;16.30;44.40;;;;;;5050971;28;20438;-49
2023/03/18 02:13:20;;;;;;;4.80;2.67;;;16.30;44.40;;;;;;5050595;28;20200;-47
2023/03/18 02:15:56;;;;;;;5.20;3.40;;;16.30;44.40;;;;;;5050834;28;20954;-47
2023/03/18 02:18:40;;;;;;;6.10;4.73;;;16.40;44.90;;;;;;5051384;28;20675;-47
2023/03/18 02:21:41;;;;;;;5.57;4.60;;;16.30;46.20;;;;;;5049380;28;20576;-44
2023/03/18 02:24:37;;;;;;;6.60;3.67;;;16.30;46.50;;;;;;5051004;28;20431;-46
2023/03/18 02:27:27;;;;;;;3.93;3.53;;;16.20;45.80;;;;;;5050546;28;21401;-48
2023/03/18 02:29:58;;;;;;;5.70;4.33;;;16.20;45.60;;;;;;5051040;28;20751;-47
2023/03/18 02:32:28;;;;;;;4.20;3.23;;;16.20;45.40;;;;;;5050939;28;20423;-48
2023/03/18 02:34:56;;;;;;;3.70;2.73;;;16.20;45.30;;;;;;5050886;28;20427;-47
2023/03/18 02:37:22;;;;;;;4.80;3.13;;;16.30;45.10;;;;;;5050443;28;20502;-48
2023/03/18 02:39:48;;;;;;;3.30;3.00;;;16.30;44.80;;;;;;5050668;28;20498;-48
2023/03/18 02:42:14;;;;;;;4.60;2.97;;;16.30;44.60;;;;;;5050769;28;20238;-43
2023/03/18 02:44:45;;;;;;;5.60;2.77;;;16.30;44.60;;;;;;5050572;28;20227;-47
2023/03/18 02:47:19;;;;;;;3.50;3.00;;;16.20;44.60;;;;;;5048704;28;20435;-44
2023/03/18 02:49:45;;;;;;;4.80;2.97;;;16.30;44.90;;;;;;5050539;28;20442;-43
2023/03/18 02:52:11;;;;;;;4.40;2.90;;;16.30;44.60;;;;;;5050591;28;20948;-45
2023/03/18 02:54:36;;;;;;;4.20;2.93;;;16.30;44.30;;;;;;5050384;28;20232;-48
2023/03/18 02:57:02;;;;;;;4.83;2.67;;;16.30;44.10;;;;;;5050240;28;20196;-47
2023/03/18 02:59:28;;;;;;;4.97;2.70;;;16.30;43.80;;;;;;5050460;28;21028;-43
2023/03/18 03:01:54;;;;;;;2.83;2.63;;;16.30;43.50;;;;;;5050499;28;20326;-47
2023/03/18 03:04:23;;;;;;;3.20;2.60;;;16.30;43.20;;;;;;5050490;28;20584;-47
2023/03/18 03:06:49;;;;;;;5.27;2.80;;;16.10;43.50;;;;;;5050337;28;20510;-45
2023/03/18 03:09:16;;;;;;;4.80;3.50;;;16.10;43.60;;;;;;5050322;28;20443;-45
2023/03/18 03:11:44;;;;;;;3.30;2.90;;;16.10;44.20;;;;;;5050691;28;20446;-47
2023/03/18 03:14:10;;;;;;;6.50;3.80;;;15.90;43.70;;;;;;5048658;28;20910;-44
2023/03/18 03:16:36;;;;;;;4.33;3.07;;;16.00;44.00;;;;;;5050400;28;20438;-47
2023/03/18 03:19:04;;;;;;;3.40;2.80;;;16.10;44.40;;;;;;5050208;28;20188;-43
2023/03/18 03:21:31;;;;;;;3.40;2.37;;;16.10;44.10;;;;;;5050316;28;20486;-46
2023/03/18 03:23:58;;;;;;;3.80;2.90;;;16.20;43.90;;;;;;5053083;28;20916;-46
2023/03/18 03:26:24;;;;;;;2.90;2.60;;;16.20;43.70;;;;;;5053936;28;20472;-44
2023/03/18 03:28:50;;;;;;;3.43;2.60;;;16.20;43.50;;;;;;5054237;28;20462;-44
2023/03/18 03:31:16;;;;;;;3.17;2.70;;;16.30;43.40;;;;;;5054248;28;20462;-46
2023/03/18 03:33:42;;;;;;;3.10;2.77;;;16.30;43.30;;;;;;5054174;28;20196;-43
2023/03/18 03:36:14;;;;;;;4.53;2.97;;;16.30;43.10;;;;;;5053707;28;20508;-43
2023/03/18 03:38:40;;;;;;;8.00;3.40;;;16.20;43.40;;;;;;5054135;28;20477;-45
2023/03/18 03:41:09;;;;;;;4.87;3.20;;;16.20;44.10;;;;;;5052386;28;20486;-45
2023/03/18 03:43:39;;;;;;;3.40;3.10;;;16.20;45.40;;;;;;5053855;28;20438;-45
2023/03/18 03:46:05;;;;;;;3.40;3.10;;;16.10;45.20;;;;;;5053470;28;20453;-43
2023/03/18 03:48:31;;;;;;;4.00;3.17;;;16.10;44.80;;;;;;5053697;28;20438;-44
2023/03/18 03:50:57;;;;;;;3.97;3.33;;;16.10;44.60;;;;;;5054010;28;20426;-47
2023/03/18 03:53:23;;;;;;;3.10;2.80;;;16.00;45.20;;;;;;5053961;28;20469;-43
2023/03/18 03:55:50;;;;;;;3.43;3.10;;;16.00;45.20;;;;;;5053197;28;20228;-46
2023/03/18 03:58:15;;;;;;;5.03;3.73;;;15.70;45.50;;;;;;5053956;28;20437;-46
2023/03/18 04:00:41;;;;;;;5.87;4.00;;;15.70;46.00;;;;;;5053719;28;20482;-44
2023/03/18 04:03:07;;;;;;;4.50;4.10;;;15.70;47.00;;;;;;5053702;28;20235;-47
2023/03/18 04:05:32;;;;;;;6.00;4.87;;;15.70;47.50;;;;;;5053167;28;20280;-48
2023/03/18 04:07:58;;;;;;;4.70;4.30;;;15.70;47.90;;;;;;5051931;28;20192;-44
2023/03/18 04:10:26;;;;;;;5.10;3.90;;;15.60;48.20;;;;;;5053596;28;20207;-47
2023/03/18 04:12:52;;;;;;;3.93;3.50;;;15.50;48.20;;;;;;5053472;28;20431;-46
2023/03/18 04:15:20;;;;;;;3.53;3.23;;;15.40;48.00;;;;;;5053026;28;20488;-44
2023/03/18 04:17:46;;;;;;;4.10;3.40;;;15.40;47.40;;;;;;5053219;28;20918;-47
2023/03/18 04:20:12;;;;;;;3.60;3.00;;;15.40;47.10;;;;;;5053291;28;20562;-46
2023/03/18 04:22:38;;;;;;;3.77;3.27;;;15.40;46.60;;;;;;5053271;28;20427;-47
2023/03/18 04:25:04;;;;;;;3.00;2.80;;;15.40;46.30;;;;;;5053389;28;20450;-48
2023/03/18 04:27:31;;;;;;;3.17;2.87;;;15.50;45.90;;;;;;5052775;28;20726;-43
2023/03/18 04:29:56;;;;;;;4.63;2.40;;;15.50;45.70;;;;;;5053124;28;20435;-47
2023/03/18 04:32:22;;;;;;;4.37;3.13;;;15.50;45.40;;;;;;5052535;28;20480;-45
2023/03/18 04:34:49;;;;;;;3.40;2.50;;;15.50;45.10;;;;;;5051334;28;20196;-44
2023/03/18 04:37:18;;;;;;;3.93;2.47;;;15.50;44.90;;;;;;5052860;28;20616;-48
2023/03/18 04:39:45;;;;;;;10.00;3.13;;;15.50;44.70;;;;;;5052850;28;20798;-46
2023/03/18 04:42:11;;;;;;;2.73;2.50;;;15.50;45.00;;;;;;5052842;28;20536;-45
2023/03/18 04:44:37;;;;;;;4.20;2.77;;;15.50;45.30;;;;;;5052890;28;20500;-46
2023/03/18 04:47:02;;;;;;;6.80;2.90;;;15.50;45.30;;;;;;5052433;28;20898;-47
2023/03/18 04:49:28;;;;;;;3.93;2.63;;;15.50;45.50;;;;;;5052833;28;20196;-44
2023/03/18 04:51:54;;;;;;;4.90;2.73;;;15.40;45.70;;;;;;5052689;28;20192;-43
2023/03/18 04:54:20;;;;;;;3.87;3.33;;;15.40;46.10;;;;;;5052435;28;20244;-45
2023/03/18 04:56:45;;;;;;;4.20;3.13;;;15.30;46.50;;;;;;5052280;28;20193;-47
2023/03/18 04:59:11;;;;;;;3.07;2.37;;;15.20;46.50;;;;;;5050845;28;20469;-45
2023/03/18 05:01:37;;;;;;;5.50;3.10;;;15.20;46.30;;;;;;5052616;28;20646;-43
2023/03/18 05:04:02;;;;;;;4.17;3.63;;;15.20;46.20;;;;;;5052443;28;20189;-44
2023/03/18 05:06:30;;;;;;;4.50;3.77;;;15.20;46.40;;;;;;5052197;28;20202;-45
2023/03/18 05:08:58;;;;;;;3.50;2.93;;;15.20;46.90;;;;;;5052375;28;20242;-43
2023/03/18 05:11:24;;;;;;;3.80;3.30;;;15.10;47.10;;;;;;5052405;28;20423;-43
2023/03/18 05:13:50;;;;;;;4.93;2.90;;;15.00;47.00;;;;;;5052281;28;20450;-43
2023/03/18 05:16:17;;;;;;;6.50;3.40;;;14.90;46.90;;;;;;5052055;28;20465;-43
2023/03/18 05:18:43;;;;;;;4.80;3.37;;;14.90;47.00;;;;;;5052098;28;20427;-43
2023/03/18 05:21:09;;;;;;;4.50;3.33;;;14.90;46.80;;;;;;5052136;28;20863;-46
2023/03/18 05:23:35;;;;;;;6.67;3.03;;;14.90;46.70;;;;;;5052161;28;20899;-47
2023/03/18 05:26:02;;;;;;;4.03;3.40;;;14.90;46.40;;;;;;5050081;28;20889;-43
2023/03/18 05:28:28;;;;;;;5.67;3.87;;;14.90;46.50;;;;;;5052211;28;20442;-43
2023/03/18 05:30:54;;;;;;;3.73;3.43;;;14.90;46.50;;;;;;5051981;28;20423;-46
2023/03/18 05:33:19;;;;;;;3.50;3.20;;;14.80;46.70;;;;;;5051856;28;20193;-44
2023/03/18 05:35:45;;;;;;;4.20;3.00;;;14.80;47.10;;;;;;5051597;28;20541;-45
2023/03/18 05:38:11;;;;;;;4.03;3.63;;;14.70;47.50;;;;;;5051864;28;20645;-45
2023/03/18 05:40:38;;;;;;;6.03;3.50;;;14.70;47.80;;;;;;5051807;28;20485;-44
2023/03/18 05:43:04;;;;;;;5.50;3.53;;;14.50;47.80;;;;;;5051867;28;20419;-47
2023/03/18 05:45:30;;;;;;;3.50;3.20;;;14.50;48.20;;;;;;5051420;28;20810;-46
2023/03/18 05:47:56;;;;;;;7.37;3.67;;;14.50;48.40;;;;;;5050722;28;20427;-44
2023/03/18 05:50:39;;;;;;;6.13;3.10;;;14.50;48.40;;;;;;5051730;28;20481;-48
2023/03/18 05:53:05;;;;;;;4.20;3.33;;;14.50;48.40;;;;;;5050090;28;20664;-46
2023/03/18 05:55:32;;;;;;;3.60;3.20;;;14.40;48.30;;;;;;5050653;28;20466;-47
2023/03/18 05:57:59;;;;;;;5.70;4.80;;;14.40;48.40;;;;;;5051535;28;20962;-49
2023/03/18 06:00:27;;;;;;;5.00;4.50;;;13.90;49.30;;;;;;5051506;28;20513;-45
2023/03/18 06:02:53;;;;;;;6.27;3.90;;;13.70;50.10;;;;;;5051335;28;20465;-46
2023/03/18 06:05:20;;;;;;;4.30;3.90;;;13.70;50.40;;;;;;5051334;28;20946;-45
2023/03/18 06:07:46;;;;;;;4.17;3.70;;;13.70;50.40;;;;;;5051380;28;20427;-46
2023/03/18 06:10:12;;;;;;;6.80;4.23;;;13.70;50.50;;;;;;5051216;28;20438;-46
2023/03/18 06:12:40;;;;;;;4.33;3.93;;;13.70;50.50;;;;;;5051241;28;20491;-50
2023/03/18 06:15:07;;;;;;;5.40;4.00;;;13.50;50.90;;;;;;5050852;28;20464;-47
2023/03/18 06:17:33;;;;;;;5.60;3.90;;;13.40;51.00;;;;;;5051089;28;20428;-49
2023/03/18 06:19:58;;;;;;;4.47;4.07;;;13.50;51.30;;;;;;5049702;28;20427;-45
2023/03/18 06:22:25;;;;;;;4.07;3.70;;;13.50;51.30;;;;;;5051196;28;20645;-45
2023/03/18 06:24:50;;;;;;;4.03;3.60;;;13.40;51.60;;;;;;5051169;28;20196;-47
2023/03/18 06:27:16;;;;;;;6.40;3.70;;;13.40;51.70;;;;;;5050634;28;20934;-44
2023/03/18 06:29:43;;;;;;;5.13;3.80;;;13.50;51.60;;;;;;5051106;28;20192;-46
2023/03/18 06:32:08;;;;;;;4.97;4.10;;;13.60;51.50;;;;;;5050931;28;20435;-45
2023/03/18 06:34:35;;;;;;;5.17;3.73;;;13.60;51.50;;;;;;5051216;28;20477;-45
2023/03/18 06:37:01;;;;;;;5.57;3.77;;;13.30;52.00;;;;;;5050745;28;20434;-43
2023/03/18 06:39:29;;;;;;;4.70;4.00;;;13.30;52.40;;;;;;5051128;28;20466;-44
2023/03/18 06:41:56;;;;;;;4.90;3.47;;;13.20;52.40;;;;;;5050775;28;20970;-44
2023/03/18 06:44:23;;;;;;;5.03;3.67;;;13.20;52.60;;;;;;5050873;28;20431;-45
2023/03/18 06:46:49;;;;;;;4.80;3.53;;;13.30;52.40;;;;;;5048677;28;20454;-46
2023/03/18 06:49:16;;;;;;;5.00;3.67;;;13.10;52.90;;;;;;5051078;28;20420;-45
2023/03/18 06:51:42;;;;;;;3.47;3.17;;;13.30;53.00;;;;;;5050787;28;20184;-48
2023/03/18 06:54:08;;;;;;;3.53;3.23;;;13.50;52.80;;;;;;5048153;28;20530;-46
2023/03/18 06:56:37;;;;;;;4.87;4.03;;;13.40;52.70;;;;;;5050236;28;20521;-44
2023/03/18 06:59:04;;;;;;;7.07;4.80;;;13.40;53.00;;;;;;5050679;28;20415;-45
2023/03/18 07:01:31;;;;;;;8.33;5.57;;;13.40;53.00;;;;;;5050908;28;20483;-49
2023/03/18 07:03:57;;;;;;;5.47;4.90;;;13.30;53.20;;;;;;5051026;28;20435;-49
2023/03/18 07:06:23;;;;;;;7.13;5.33;;;13.30;53.10;;;;;;5050454;28;20427;-44
2023/03/18 07:08:49;;;;;;;4.00;3.70;;;13.20;53.80;;;;;;5050624;28;20423;-42
2023/03/18 07:11:15;;;;;;;8.20;4.10;;;13.10;53.80;;;;;;5050597;28;20690;-41
2023/03/18 07:13:41;;;;;;;5.37;4.00;;;13.20;53.80;;;;;;5048892;28;20550;-42
2023/03/18 07:16:07;;;;;;;5.47;3.83;;;13.40;53.60;;;;;;5050226;28;20427;-45
2023/03/18 07:18:32;;;;;;;4.40;3.17;;;13.60;53.00;;;;;;5050698;28;20200;-45
2023/03/18 07:20:58;;;;;;;12.70;4.67;;;13.80;52.60;;;;;;5050640;28;20235;-45
2023/03/18 07:23:24;;;;;;;4.67;3.97;;;14.20;52.50;;;;;;5050590;28;20210;-45
2023/03/18 07:25:50;;;;;;;3.73;3.43;;;14.40;51.60;;;;;;5049921;28;20508;-43
2023/03/18 07:28:16;;;;;;;3.90;3.37;;;14.60;51.30;;;;;;5050434;28;20196;-44
2023/03/18 07:30:41;;;;;;;7.00;3.93;;;14.80;50.80;;;;;;5050228;28;20439;-44
2023/03/18 07:33:07;;;;;;;5.23;3.93;;;15.00;50.20;;;;;;5050316;28;20556;-45
2023/03/18 07:35:33;;;;;;;4.30;3.53;;;15.10;49.70;;;;;;5049813;28;20189;-44
2023/03/18 07:37:59;;;;;;;4.73;3.73;;;15.30;49.70;;;;;;5050659;28;20197;-45
2023/03/18 07:40:24;;;;;;;4.67;3.07;;;15.40;49.90;;;;;;5048481;28;20471;-43
2023/03/18 07:42:50;;;;;;;3.50;3.20;;;15.70;49.50;;;;;;5050277;28;20255;-43
2023/03/18 07:45:17;;;;;;;4.57;4.03;;;15.80;49.10;;;;;;5049810;28;20278;-45
2023/03/18 07:47:42;;;;;;;7.53;4.57;;;15.90;48.70;;;;;;5050399;28;20284;-45
2023/03/18 07:50:09;;;;;;;6.33;5.20;;;16.00;48.30;;;;;;5050199;28;20538;-47
2023/03/18 07:52:36;;;;;;;6.57;5.50;;;16.10;48.10;;;;;;5050123;28;20663;-44
2023/03/18 07:55:03;;;;;;;10.03;5.97;;;16.30;48.40;;;;;;5049557;28;20550;-47
2023/03/18 07:57:28;;;;;;;7.67;5.90;;;16.70;47.20;;;;;;5050316;28;20508;-49
2023/03/18 07:59:55;;;;;;;6.33;5.20;;;16.90;46.50;;;;;;5050037;28;20435;-45
2023/03/18 08:02:21;;;;;;;5.93;5.40;;;17.20;46.40;;;;;;5049985;28;20239;-45
2023/03/18 08:04:46;;;;;;;5.50;5.00;;;17.30;46.30;;;;;;5050298;28;20427;-44
2023/03/18 08:07:12;;;;;;;4.83;3.90;;;17.40;45.60;;;;;;5048202;28;20780;-46
2023/03/18 08:09:38;;;;;;;6.40;4.13;;;17.50;45.70;;;;;;5050456;28;20246;-44
2023/03/18 08:12:04;;;;;;;12.03;3.50;;;17.80;45.60;;;;;;5053765;28;20926;-43
2023/03/18 08:14:30;;;;;;;6.17;3.87;;;18.10;45.30;;;;;;5053861;28;20614;-48
2023/03/18 08:16:56;;;;;;;5.60;3.17;;;18.40;44.70;;;;;;5053317;28;20419;-44
2023/03/18 08:19:21;;;;;;;3.67;2.77;;;18.50;44.60;;;;;;5053477;28;20613;-46
2023/03/18 08:21:47;;;;;;;3.40;2.90;;;18.50;43.20;;;;;;5053572;28;20636;-45
2023/03/18 08:24:13;;;;;;;4.87;3.00;;;18.70;42.90;;;;;;5053469;28;20266;-45
2023/03/18 08:26:39;;;;;;;3.63;3.03;;;18.90;42.00;;;;;;5053118;28;20435;-45
2023/03/18 08:29:05;;;;;;;3.67;2.70;;;19.00;41.60;;;;;;5053752;28;20193;-46
2023/03/18 08:31:30;;;;;;;6.00;2.03;;;18.90;41.30;;;;;;5053504;28;20200;-45
2023/03/18 08:33:57;;;;;;;6.30;2.63;;;19.00;40.50;;;;;;5051774;28;20427;-46
2023/03/18 08:36:23;;;;;;;3.23;2.50;;;19.30;39.90;;;;;;5052979;28;20352;-46
2023/03/18 08:38:49;;;;;;;3.67;3.07;;;19.40;39.00;;;;;;5053258;28;20517;-44
2023/03/18 08:41:15;;;;;;;2.80;2.47;;;19.50;38.90;;;;;;5053041;28;21061;-44
2023/03/18 08:43:41;;;;;;;5.00;2.60;;;19.50;39.30;;;;;;5052990;28;20279;-45
2023/03/18 08:46:07;;;;;;;3.50;2.40;;;19.70;39.40;;;;;;5052658;28;20434;-43
2023/03/18 08:48:34;;;;;;;6.30;2.60;;;19.90;39.00;;;;;;5052864;28;20430;-45
2023/03/18 08:51:03;;;;;;;4.20;1.93;;;19.90;38.00;;;;;;5052969;28;20356;-44
2023/03/18 08:53:29;;;;;;;3.20;2.03;;;20.10;35.70;;;;;;5052936;28;20801;-44
2023/03/18 08:55:54;;;;;;;2.67;2.13;;;20.10;35.00;;;;;;5052272;28;20470;-43
2023/03/18 08:58:20;;;;;;;2.10;1.63;;;20.30;35.30;;;;;;5052786;28;20657;-45
2023/03/18 09:00:46;;;;;;;2.77;2.00;;;20.50;35.30;;;;;;5051121;28;20227;-46
2023/03/18 09:03:12;;;;;;;2.10;1.90;;;20.60;34.90;;;;;;5052744;28;20196;-43
2023/03/18 09:05:39;;;;;;;2.90;2.17;;;20.80;34.50;;;;;;5052163;28;20656;-43
2023/03/18 09:08:05;;;;;;;2.33;2.10;;;20.80;34.40;;;;;;5052340;28;20464;-43
2023/03/18 09:10:32;;;;;;;4.70;2.53;;;20.90;34.80;;;;;;5052480;28;20435;-43
2023/03/18 09:12:58;;;;;;;3.57;2.77;;;21.00;34.40;;;;;;5052630;28;20434;-46
2023/03/18 09:15:23;;;;;;;3.73;3.40;;;21.10;33.90;;;;;;5052364;28;20432;-48
2023/03/18 09:17:49;;;;;;;7.40;3.40;;;21.40;34.10;;;;;;5052547;28;20498;-45
2023/03/18 09:20:16;;;;;;;3.20;2.67;;;21.50;33.80;;;;;;5052376;28;20188;-47
2023/03/18 09:22:43;;;;;;;2.60;2.37;;;21.50;33.40;;;;;;5052267;28;20198;-46
2023/03/18 09:25:09;;;;;;;3.60;2.50;;;21.30;32.80;;;;;;5033902;28;20823;-44
2023/03/18 09:27:35;;;;;;;3.23;2.93;;;21.60;33.00;;;;;;5050682;28;20482;-48
2023/03/18 09:30:03;;;;;;;3.40;2.07;;;21.70;32.90;;;;;;5052079;28;20926;-46
2023/03/18 09:32:29;;;;;;;2.67;2.10;;;22.00;33.20;;;;;;5052398;28;20431;-46
2023/03/18 09:34:55;;;;;;;2.77;2.10;;;22.10;32.10;;;;;;5051715;28;20485;-48
2023/03/18 09:37:20;;;;;;;4.93;1.90;;;22.30;32.30;;;;;;5052106;28;20206;-45
2023/03/18 09:39:46;;;;;;;4.03;2.17;;;22.30;31.90;;;;;;5051949;28;20200;-47
2023/03/18 09:42:31;;;;;;;2.57;1.73;;;22.40;31.90;;;;;;5051893;28;20236;-49
2023/03/18 09:45:01;;;;;;;3.30;1.73;;;22.50;30.90;;;;;;5051563;28;20285;-46
2023/03/18 09:48:00;;;;;;;2.67;1.63;;;22.70;31.20;;;;;;5051901;28;20565;-46
2023/03/18 09:50:56;;;;;;;7.13;2.10;;;22.90;30.80;;;;;;5052131;28;20423;-46
2023/03/18 09:53:39;;;;;;;4.73;2.70;;;23.00;31.60;;;;;;5049462;28;20437;-46
2023/03/18 09:56:11;;;;;;;2.63;1.80;;;23.10;31.00;;;;;;5051123;28;20475;-48
2023/03/18 09:58:55;;;;;;;1.70;1.40;;;23.30;30.90;;;;;;5051688;28;20435;-49
2023/03/18 10:01:22;;;;;;;1.47;1.37;;;23.40;30.30;;;;;;5051489;28;20495;-45
2023/03/18 10:03:56;;;;;;;3.00;1.70;;;23.60;30.70;;;;;;5051486;28;20415;-49
2023/03/18 10:06:23;;;;;;;1.87;1.40;;;23.80;31.10;;;;;;5051006;28;20426;-45
2023/03/18 10:09:00;;;;;;;2.10;1.77;;;23.90;30.30;;;;;;5051174;28;20431;-47
2023/03/18 10:11:34;;;;;;;1.50;1.40;;;23.90;30.20;;;;;;5039168;28;20427;-47
2023/03/18 10:14:21;;;;;;;5.80;2.00;;;24.20;30.80;;;;;;5051236;28;21048;-48
2023/03/18 10:17:04;;;;;;;5.43;1.60;;;24.30;29.70;;;;;;5051130;28;20434;-45
2023/03/18 10:19:31;;;;;;;4.03;1.53;;;24.40;30.20;;;;;;5049562;28;20489;-48
2023/03/18 10:22:18;;;;;;;3.00;1.47;;;24.60;30.40;;;;;;5051184;28;20483;-45
2023/03/18 10:25:15;;;;;;;2.27;1.70;;;24.00;28.40;;;;;;5050821;28;20474;-46
2023/03/18 10:27:47;;;;;;;1.77;1.60;;;23.80;29.20;;;;;;5051053;28;20999;-47
2023/03/18 10:30:28;;;;;;;2.03;1.77;;;24.10;29.50;;;;;;5050769;28;20472;-44
2023/03/18 10:33:07;;;;;;;3.53;1.80;;;24.10;29.40;;;;;;5050576;28;20427;-48
2023/03/18 10:35:56;;;;;;;3.60;1.83;;;24.40;29.40;;;;;;5050552;28;21345;-44
2023/03/18 10:38:28;;;;;;;2.40;2.20;;;24.60;29.20;;;;;;5050834;28;20488;-46
2023/03/18 10:40:55;;;;;;;6.60;2.00;;;24.90;29.20;;;;;;5050747;28;20489;-46
2023/03/18 10:43:24;;;;;;;2.70;2.13;;;25.00;29.70;;;;;;5050722;28;20428;-46
2023/03/18 10:46:02;;;;;;;5.20;2.20;;;25.20;28.80;;;;;;5049029;28;20427;-47
2023/03/18 10:48:35;;;;;;;2.60;1.70;;;25.30;28.10;;;;;;5050901;28;20472;-44
2023/03/18 10:51:11;;;;;;;2.17;1.47;;;25.10;27.90;;;;;;5050768;28;20423;-47
2023/03/18 10:54:10;;;;;;;3.40;1.70;;;25.20;28.40;;;;;;5050762;28;20423;-48
2023/03/18 10:56:36;;;;;;;2.10;1.70;;;25.40;28.30;;;;;;5050032;28;20435;-49
2023/03/18 10:59:14;;;;;;;2.60;1.67;;;25.60;27.80;;;;;;5050545;28;20492;-48
2023/03/18 11:01:46;;;;;;;2.40;1.40;;;25.60;28.00;;;;;;5050386;28;20516;-46
2023/03/18 11:04:17;;;;;;;3.70;2.20;;;25.60;27.30;;;;;;5050390;28;20484;-49
2023/03/18 11:06:59;;;;;;;2.63;1.80;;;25.40;27.80;;;;;;5050091;28;20529;-44
2023/03/18 11:09:35;;;;;;;2.67;1.80;;;25.60;27.90;;;;;;5050293;28;20427;-44
2023/03/18 11:12:18;;;;;;;2.63;1.90;;;25.70;29.00;;;;;;5050450;28;20430;-44
2023/03/18 11:14:48;;;;;;;2.57;1.50;;;25.70;28.20;;;;;;5049187;28;20930;-46
2023/03/18 11:17:32;;;;;;;2.30;1.70;;;25.80;28.20;;;;;;5050502;28;20834;-45
2023/03/18 11:20:25;;;;;;;2.83;1.53;;;25.90;28.70;;;;;;5050597;28;20906;-44
2023/03/18 11:22:54;;;;;;;1.70;1.60;;;25.70;26.70;;;;;;5042402;28;20467;-46
2023/03/18 11:25:25;;;;;;;3.53;1.70;;;25.50;27.20;;;;;;5049810;28;20442;-45
2023/03/18 11:28:19;;;;;;;2.83;1.60;;;25.80;27.30;;;;;;5050383;28;20470;-44
2023/03/18 11:30:49;;;;;;;4.60;1.47;;;26.00;27.10;;;;;;5040110;28;20482;-44
2023/03/18 11:33:16;;;;;;;2.37;1.50;;;25.90;26.70;;;;;;5050353;28;20423;-44
2023/03/18 11:35:49;;;;;;;2.60;1.53;;;26.10;27.80;;;;;;5049799;28;20439;-44
2023/03/18 11:38:35;;;;;;;1.90;1.30;;;26.20;26.80;;;;;;5050363;28;20845;-48
2023/03/18 11:41:13;;;;;;;2.20;1.50;;;26.20;25.60;;;;;;5048587;28;20496;-45
2023/03/18 11:43:52;;;;;;;3.33;1.47;;;26.30;26.70;;;;;;5050024;28;20473;-46
2023/03/18 11:46:20;;;;;;;3.77;1.60;;;26.30;25.90;;;;;;5052971;28;20431;-44
2023/03/18 11:48:46;;;;;;;2.97;1.37;;;26.20;25.60;;;;;;5054094;28;20489;-44
2023/03/18 11:51:33;;;;;;;3.03;1.60;;;26.40;25.50;;;;;;5054039;28;20435;-45
2023/03/18 11:54:08;;;;;;;1.73;1.40;;;26.30;25.50;;;;;;5054017;28;20245;-45
2023/03/18 11:56:52;;;;;;;2.67;1.33;;;26.30;25.50;;;;;;5053403;28;20442;-45
2023/03/18 11:59:35;;;;;;;2.27;1.67;;;26.30;25.20;;;;;;5053907;28;20423;-46
2023/03/18 12:02:10;;;;;;;5.10;1.60;;;26.50;24.90;;;;;;5053639;28;20478;-45
2023/03/18 12:04:55;;;;;;;3.50;1.73;;;26.50;25.10;;;;;;5053276;28;20484;-45
2023/03/18 12:07:42;;;;;;;1.33;1.20;;;26.60;24.60;;;;;;5052114;28;20431;-44
2023/03/18 12:10:25;;;;;;;4.17;1.70;;;26.70;25.50;;;;;;5043860;28;20423;-45
2023/03/18 12:13:18;;;;;;;2.57;1.50;;;26.90;25.30;;;;;;5053567;28;20793;-44
2023/03/18 12:16:16;;;;;;;1.57;1.47;;;27.10;24.60;;;;;;5044407;28;20447;-45
2023/03/18 12:19:13;;;;;;;1.97;1.30;;;27.30;24.90;;;;;;5053501;28;20442;-45
2023/03/18 12:21:48;;;;;;;2.97;1.57;;;27.50;24.40;;;;;;5049211;28;20490;-45
2023/03/18 12:24:31;;;;;;;2.43;1.30;;;27.40;23.90;;;;;;5053263;28;20511;-44
2023/03/18 12:27:09;;;;;;;3.93;1.50;;;27.40;23.80;;;;;;5053418;28;20918;-44
2023/03/18 12:29:48;;;;;;;3.70;1.80;;;27.60;24.00;;;;;;5053418;28;20423;-45
2023/03/18 12:32:39;;;;;;;1.90;1.40;;;27.60;23.80;;;;;;5052974;28;20907;-45
2023/03/18 12:35:29;;;;;;;1.67;1.23;;;27.60;23.90;;;;;;5052813;28;20493;-44
2023/03/18 12:38:26;;;;;;;3.07;1.60;;;27.70;23.90;;;;;;5053230;28;20946;-44
2023/03/18 12:41:03;;;;;;;3.27;1.40;;;27.60;23.80;;;;;;5053090;28;20501;-44
2023/03/18 12:43:47;;;;;;;3.67;1.70;;;27.70;23.60;;;;;;5053124;28;20848;-45
2023/03/18 12:46:35;;;;;;;3.57;1.70;;;27.70;23.50;;;;;;5052559;28;20473;-45
2023/03/18 12:49:21;;;;;;;3.33;1.30;;;27.70;23.60;;;;;;5052888;28;20775;-45
2023/03/18 12:51:55;;;;;;;4.97;1.80;;;27.30;23.20;;;;;;5052838;28;20485;-44
2023/03/18 12:54:32;;;;;;;2.60;1.47;;;27.20;24.10;;;;;;5052229;28;20915;-45
2023/03/18 12:57:11;;;;;;;3.13;1.40;;;26.90;24.10;;;;;;5052687;28;20438;-45
2023/03/18 12:59:55;;;;;;;3.57;1.30;;;27.10;24.80;;;;;;5050946;28;20480;-45